Portada
METAR-TAF:

METAR-TAF

Aeroports :

Xi'an, Xina

latitud: 34-26N, longitud: 108-45E, altitud: 479 m

Observació

L'informe es va fer fa 25 minuts, a les 04:00 UTC
Vent 8 kt del Sud-Oest, variant entre Sud i Oest
Temperatura 23°C
Humitat 38%
Pressió 1015 hPa
Visibilitat 10 km o més
sense núvols per sota de 1500 mi sense presència de cumulonimbus.

METAR: ZLXY 080400Z 23004MPS 170V280 CAVOK 23/08 Q1015 NOSIG

Hora: 12:25 (04:25 UTC)

Pronòstic

L'informe es va fer fa 7 hores i 20 minuts, a les 21:05 UTC
Pronòstic vàlid del 08 a les 00 UTC al 08 a les 24 UTC
Vent 6 kt del Oest/Sud-Oest
Visibilitat: 5000 m
calitja

TAF: ZLXY 072105Z 0800/0824 24003MPS 5000 HZ NSC TX28/0808Z TN08/0822Z

Observacions i pronòstics meteorològics de més de 4000 aeroports (METAR i TAF).

Les estacions disponibles són els punts grocs i vermells al mapa.

Posi el ratolí al punt desitjat per veure el nom de l'estació.

Feu clic per veure les observacions i els pronòstics meteorològics.

Per canviar el mapa: feu clic els botons verds amb una creu de color negre per apropar; al botó verd amb un guió per allunyar la imatge; o en les fletxes verdes per a mapes adjacents.


METAR-TAF: